Pagrindinis puslapis
METAR-TAF:

METAR-TAF

Oro uostai :

Bagdadas, Irakas

platuma: 33-15-45N, ilguma: 44-14-04E, Aukštis: 35 m

Dabartinis oras

Ataskaita buvo paskelbta 28 minutes, ne 06:00 UTC
Vėjas 9 kt iš Pietryčių
Temperatūra 12°C
Drėgmė 88%
Slėgis 1020 hPa
Matomumas: 4900 m
Mažai debesys ne aukštis 3000 ft
Su prošvaistėmis ne aukštis 10000 ft
rūkana

METAR: ORBI 060600Z 13009KT 4900 BR FEW030 BKN100 12/10 Q1020 NOSIG

Laikas: 09:28 (06:28 UTC)

Prognozė

Ataskaita buvo paskelbta 2 valandos ir 28 minutes, ne 04:00 UTC
Prognozė galioja nuo 06 metu 06 UTC su 07 metu 06 UTC
Vėjas 10 kt iš Rytų/Pietryčių
Matomumas: 3000 m
Su prošvaistėmis ne aukštis 4000 ft
rūkana
Tapsmas
nuo 06 metu 07 UTC su 06 metu 09 UTC
Matomumas: 7000 m
Laikinai
nuo 06 metu 14 UTC su 07 metu 06 UTC
lietus
Tikimybė 30% :
Laikinai
nuo 06 metu 18 UTC su 07 metu 04 UTC
Mažai debesys ne aukštis 2500 ft, Liūtiniai kamuoliniai debesys.
perkūnija, (silpnas) lietus

TAF: ORBI 060400Z 0606/0706 12010KT 3000 BR BKN040 BECMG 0607/0609 7000 TEMPO 0614/0706 -RA PROB30 TEMPO 0618/0704 -TS SHRA FEW025CB

Orai ataskaitas ir orų prognozės (METAR, TAF).

turimą stotys yra geltonos ir raudonos taškus žemėlapyje.

Perkelti pele per norėdami pamatyti stoties vardą.

Tada spustelėkite, norėdami matyti oro stebėjimo ir prognozės.

Norėdami pakeisti žemėlapį: spustelėkite ant žalios mygtukų su juodo kryžiaus žemyn,; žalią mygtuką su brūkšneliu, jei norite nutolinti; arba žalių rodyklių gretimoms žemėlapius.


METAR-TAF: